Terminal Aerodrome Forecast
Issued by NWS Caribou, ME

Home | Current Version | Previous Version | Text Only | Print | Product List | Glossary On
Versions: 1 2 3 4 5 6 7 8 9 10 11 12 13 14 15 16 17 18 19
000
FTUS41 KCAR 301804 AAA
TAFBGR
TAF AMD
KBGR 301804Z 3018/3118 18014G26KT 4SM -SN OVC035
      TEMPO 3018/3021 1 1/2SM -SN BKN009 OVC023
     FM302100 21010KT P6SM OVC025
     FM310300 25005KT P6SM OVC050
     FM311000 28008KT P6SM BKN050
     FM311400 30012G18KT P6SM SCT050=

USA.gov is the U.S. government's official web portal to all federal, state and local government web resources and services.